<?xml version="1.0" encoding="UTF-8" standalone="no" ?>
<gpx xmlns="http://www.topografix.com/GPX/1/1" xmlns:xsi="http://www.w3.org/2001/XMLSchema-instance" xsi:schemaLocation="http://www.topografix.com/GPX/1/1 http://www.topografix.com/GPX/1/1/gpx.xsd" version="1.1" creator="VisuGPX - https://www.visugpx.com">
  <metadata>
    <name>10681741-Roche de Roquebrune</name>
  </metadata>
  <trk>
    <name><![CDATA[10681741-Roche de Roquebrune]]></name>
    <trkseg>
      <trkpt lat="43.44367" lon="6.61924">
        <ele>18</ele>
        <time>2020-03-29T18:05:28Z</time>
      </trkpt>
      <trkpt lat="43.44365" lon="6.61783">
        <ele>21</ele>
        <time>2020-03-29T18:06:50Z</time>
      </trkpt>
      <trkpt lat="43.44363" lon="6.61757">
        <ele>22</ele>
        <time>2020-03-29T18:07:05Z</time>
      </trkpt>
      <trkpt lat="43.44355" lon="6.61731">
        <ele>22</ele>
        <time>2020-03-29T18:07:22Z</time>
      </trkpt>
      <trkpt lat="43.44355" lon="6.61712">
        <ele>22</ele>
        <time>2020-03-29T18:07:33Z</time>
      </trkpt>
      <trkpt lat="43.44348" lon="6.61688">
        <ele>22</ele>
        <time>2020-03-29T18:07:48Z</time>
      </trkpt>
      <trkpt lat="43.44348" lon="6.6168">
        <ele>22</ele>
        <time>2020-03-29T18:07:52Z</time>
      </trkpt>
      <trkpt lat="43.44346" lon="6.61675">
        <ele>22</ele>
        <time>2020-03-29T18:07:56Z</time>
      </trkpt>
      <trkpt lat="43.44344" lon="6.61669">
        <ele>22</ele>
        <time>2020-03-29T18:07:59Z</time>
      </trkpt>
      <trkpt lat="43.44348" lon="6.61652">
        <ele>23</ele>
        <time>2020-03-29T18:08:10Z</time>
      </trkpt>
      <trkpt lat="43.44342" lon="6.61632">
        <ele>24</ele>
        <time>2020-03-29T18:08:22Z</time>
      </trkpt>
      <trkpt lat="43.44346" lon="6.61626">
        <ele>25</ele>
        <time>2020-03-29T18:08:27Z</time>
      </trkpt>
      <trkpt lat="43.4435" lon="6.61622">
        <ele>26</ele>
        <time>2020-03-29T18:08:31Z</time>
      </trkpt>
      <trkpt lat="43.44355" lon="6.61613">
        <ele>27</ele>
        <time>2020-03-29T18:08:38Z</time>
      </trkpt>
      <trkpt lat="43.44361" lon="6.61611">
        <ele>28</ele>
        <time>2020-03-29T18:08:43Z</time>
      </trkpt>
      <trkpt lat="43.44365" lon="6.61607">
        <ele>29</ele>
        <time>2020-03-29T18:08:47Z</time>
      </trkpt>
      <trkpt lat="43.4437" lon="6.616">
        <ele>30</ele>
        <time>2020-03-29T18:08:52Z</time>
      </trkpt>
      <trkpt lat="43.44374" lon="6.61592">
        <ele>32</ele>
        <time>2020-03-29T18:08:58Z</time>
      </trkpt>
      <trkpt lat="43.44376" lon="6.61579">
        <ele>33</ele>
        <time>2020-03-29T18:09:06Z</time>
      </trkpt>
      <trkpt lat="43.44378" lon="6.61557">
        <ele>35</ele>
        <time>2020-03-29T18:09:19Z</time>
      </trkpt>
      <trkpt lat="43.44378" lon="6.61538">
        <ele>37</ele>
        <time>2020-03-29T18:09:30Z</time>
      </trkpt>
      <trkpt lat="43.44383" lon="6.61516">
        <ele>39</ele>
        <time>2020-03-29T18:09:43Z</time>
      </trkpt>
      <trkpt lat="43.44428" lon="6.61471">
        <ele>48</ele>
        <time>2020-03-29T18:10:28Z</time>
      </trkpt>
      <trkpt lat="43.44436" lon="6.61454">
        <ele>51</ele>
        <time>2020-03-29T18:10:39Z</time>
      </trkpt>
      <trkpt lat="43.44434" lon="6.61428">
        <ele>53</ele>
        <time>2020-03-29T18:10:55Z</time>
      </trkpt>
      <trkpt lat="43.44421" lon="6.61416">
        <ele>51</ele>
        <time>2020-03-29T18:11:07Z</time>
      </trkpt>
      <trkpt lat="43.44363" lon="6.61394">
        <ele>52</ele>
        <time>2020-03-29T18:11:55Z</time>
      </trkpt>
      <trkpt lat="43.44346" lon="6.61377">
        <ele>53</ele>
        <time>2020-03-29T18:12:12Z</time>
      </trkpt>
      <trkpt lat="43.44344" lon="6.61358">
        <ele>54</ele>
        <time>2020-03-29T18:12:23Z</time>
      </trkpt>
      <trkpt lat="43.44355" lon="6.61338">
        <ele>57</ele>
        <time>2020-03-29T18:12:38Z</time>
      </trkpt>
      <trkpt lat="43.44363" lon="6.61336">
        <ele>58</ele>
        <time>2020-03-29T18:12:44Z</time>
      </trkpt>
      <trkpt lat="43.44376" lon="6.61353">
        <ele>57</ele>
        <time>2020-03-29T18:12:59Z</time>
      </trkpt>
      <trkpt lat="43.44387" lon="6.6136">
        <ele>57</ele>
        <time>2020-03-29T18:13:08Z</time>
      </trkpt>
      <trkpt lat="43.444" lon="6.61332">
        <ele>62</ele>
        <time>2020-03-29T18:13:28Z</time>
      </trkpt>
      <trkpt lat="43.44395" lon="6.61315">
        <ele>64</ele>
        <time>2020-03-29T18:13:38Z</time>
      </trkpt>
      <trkpt lat="43.44404" lon="6.61295">
        <ele>68</ele>
        <time>2020-03-29T18:13:52Z</time>
      </trkpt>
      <trkpt lat="43.44415" lon="6.61285">
        <ele>70</ele>
        <time>2020-03-29T18:14:03Z</time>
      </trkpt>
      <trkpt lat="43.44415" lon="6.61274">
        <ele>71</ele>
        <time>2020-03-29T18:14:09Z</time>
      </trkpt>
      <trkpt lat="43.4438" lon="6.61242">
        <ele>74</ele>
        <time>2020-03-29T18:14:43Z</time>
      </trkpt>
      <trkpt lat="43.44363" lon="6.61231">
        <ele>75</ele>
        <time>2020-03-29T18:14:58Z</time>
      </trkpt>
      <trkpt lat="43.44342" lon="6.61235">
        <ele>73</ele>
        <time>2020-03-29T18:15:15Z</time>
      </trkpt>
      <trkpt lat="43.44325" lon="6.61229">
        <ele>72</ele>
        <time>2020-03-29T18:15:29Z</time>
      </trkpt>
      <trkpt lat="43.44314" lon="6.61214">
        <ele>73</ele>
        <time>2020-03-29T18:15:41Z</time>
      </trkpt>
      <trkpt lat="43.44307" lon="6.6119">
        <ele>76</ele>
        <time>2020-03-29T18:15:56Z</time>
      </trkpt>
      <trkpt lat="43.44318" lon="6.61169">
        <ele>81</ele>
        <time>2020-03-29T18:16:11Z</time>
      </trkpt>
      <trkpt lat="43.44327" lon="6.61128">
        <ele>86</ele>
        <time>2020-03-29T18:16:36Z</time>
      </trkpt>
      <trkpt lat="43.44325" lon="6.61109">
        <ele>87</ele>
        <time>2020-03-29T18:16:47Z</time>
      </trkpt>
      <trkpt lat="43.44295" lon="6.61033">
        <ele>91</ele>
        <time>2020-03-29T18:17:38Z</time>
      </trkpt>
      <trkpt lat="43.44275" lon="6.61001">
        <ele>93</ele>
        <time>2020-03-29T18:18:02Z</time>
      </trkpt>
      <trkpt lat="43.44262" lon="6.6098">
        <ele>93</ele>
        <time>2020-03-29T18:18:18Z</time>
      </trkpt>
      <trkpt lat="43.44256" lon="6.60937">
        <ele>93</ele>
        <time>2020-03-29T18:18:44Z</time>
      </trkpt>
      <trkpt lat="43.44245" lon="6.60898">
        <ele>93</ele>
        <time>2020-03-29T18:19:08Z</time>
      </trkpt>
      <trkpt lat="43.44234" lon="6.60875">
        <ele>93</ele>
        <time>2020-03-29T18:19:24Z</time>
      </trkpt>
      <trkpt lat="43.44228" lon="6.60866">
        <ele>93</ele>
        <time>2020-03-29T18:19:31Z</time>
      </trkpt>
      <trkpt lat="43.44213" lon="6.6086">
        <ele>92</ele>
        <time>2020-03-29T18:19:44Z</time>
      </trkpt>
      <trkpt lat="43.44181" lon="6.60825">
        <ele>91</ele>
        <time>2020-03-29T18:20:16Z</time>
      </trkpt>
      <trkpt lat="43.44172" lon="6.60813">
        <ele>91</ele>
        <time>2020-03-29T18:20:26Z</time>
      </trkpt>
      <trkpt lat="43.44168" lon="6.60776">
        <ele>91</ele>
        <time>2020-03-29T18:20:48Z</time>
      </trkpt>
      <trkpt lat="43.44174" lon="6.6068">
        <ele>94</ele>
        <time>2020-03-29T18:21:44Z</time>
      </trkpt>
      <trkpt lat="43.442" lon="6.60581">
        <ele>102</ele>
        <time>2020-03-29T18:22:45Z</time>
      </trkpt>
      <trkpt lat="43.44209" lon="6.60508">
        <ele>105</ele>
        <time>2020-03-29T18:23:28Z</time>
      </trkpt>
      <trkpt lat="43.44211" lon="6.60474">
        <ele>107</ele>
        <time>2020-03-29T18:23:48Z</time>
      </trkpt>
      <trkpt lat="43.44204" lon="6.60407">
        <ele>110</ele>
        <time>2020-03-29T18:24:27Z</time>
      </trkpt>
      <trkpt lat="43.44215" lon="6.60383">
        <ele>111</ele>
        <time>2020-03-29T18:24:44Z</time>
      </trkpt>
      <trkpt lat="43.44228" lon="6.60362">
        <ele>112</ele>
        <time>2020-03-29T18:25:00Z</time>
      </trkpt>
      <trkpt lat="43.44239" lon="6.60319">
        <ele>113</ele>
        <time>2020-03-29T18:25:27Z</time>
      </trkpt>
      <trkpt lat="43.44234" lon="6.603">
        <ele>115</ele>
        <time>2020-03-29T18:25:38Z</time>
      </trkpt>
      <trkpt lat="43.44239" lon="6.60272">
        <ele>116</ele>
        <time>2020-03-29T18:25:55Z</time>
      </trkpt>
      <trkpt lat="43.44247" lon="6.60253">
        <ele>116</ele>
        <time>2020-03-29T18:26:08Z</time>
      </trkpt>
      <trkpt lat="43.44247" lon="6.60246">
        <ele>116</ele>
        <time>2020-03-29T18:26:12Z</time>
      </trkpt>
      <trkpt lat="43.44249" lon="6.60225">
        <ele>117</ele>
        <time>2020-03-29T18:26:24Z</time>
      </trkpt>
      <trkpt lat="43.4426" lon="6.60205">
        <ele>119</ele>
        <time>2020-03-29T18:26:39Z</time>
      </trkpt>
      <trkpt lat="43.44267" lon="6.60175">
        <ele>121</ele>
        <time>2020-03-29T18:26:57Z</time>
      </trkpt>
      <trkpt lat="43.44282" lon="6.60156">
        <ele>123</ele>
        <time>2020-03-29T18:27:13Z</time>
      </trkpt>
      <trkpt lat="43.44297" lon="6.60143">
        <ele>126</ele>
        <time>2020-03-29T18:27:28Z</time>
      </trkpt>
      <trkpt lat="43.44331" lon="6.60132">
        <ele>129</ele>
        <time>2020-03-29T18:27:56Z</time>
      </trkpt>
      <trkpt lat="43.44355" lon="6.60109">
        <ele>133</ele>
        <time>2020-03-29T18:28:19Z</time>
      </trkpt>
      <trkpt lat="43.4437" lon="6.60074">
        <ele>136</ele>
        <time>2020-03-29T18:28:43Z</time>
      </trkpt>
      <trkpt lat="43.44372" lon="6.60012">
        <ele>140</ele>
        <time>2020-03-29T18:29:19Z</time>
      </trkpt>
      <trkpt lat="43.44385" lon="6.59991">
        <ele>142</ele>
        <time>2020-03-29T18:29:35Z</time>
      </trkpt>
      <trkpt lat="43.44387" lon="6.59967">
        <ele>144</ele>
        <time>2020-03-29T18:29:49Z</time>
      </trkpt>
      <trkpt lat="43.44404" lon="6.59961">
        <ele>145</ele>
        <time>2020-03-29T18:30:03Z</time>
      </trkpt>
      <trkpt lat="43.44408" lon="6.59948">
        <ele>146</ele>
        <time>2020-03-29T18:30:11Z</time>
      </trkpt>
      <trkpt lat="43.44423" lon="6.59933">
        <ele>148</ele>
        <time>2020-03-29T18:30:26Z</time>
      </trkpt>
      <trkpt lat="43.44436" lon="6.59886">
        <ele>151</ele>
        <time>2020-03-29T18:30:55Z</time>
      </trkpt>
      <trkpt lat="43.44449" lon="6.59873">
        <ele>153</ele>
        <time>2020-03-29T18:31:08Z</time>
      </trkpt>
      <trkpt lat="43.44451" lon="6.59858">
        <ele>154</ele>
        <time>2020-03-29T18:31:17Z</time>
      </trkpt>
      <trkpt lat="43.44462" lon="6.59838">
        <ele>154</ele>
        <time>2020-03-29T18:31:31Z</time>
      </trkpt>
      <trkpt lat="43.44511" lon="6.59826">
        <ele>160</ele>
        <time>2020-03-29T18:32:11Z</time>
      </trkpt>
      <trkpt lat="43.44546" lon="6.59806">
        <ele>164</ele>
        <time>2020-03-29T18:32:42Z</time>
      </trkpt>
      <trkpt lat="43.44561" lon="6.59806">
        <ele>166</ele>
        <time>2020-03-29T18:32:54Z</time>
      </trkpt>
      <trkpt lat="43.44584" lon="6.59823">
        <ele>170</ele>
        <time>2020-03-29T18:33:14Z</time>
      </trkpt>
      <trkpt lat="43.44604" lon="6.59828">
        <ele>172</ele>
        <time>2020-03-29T18:33:31Z</time>
      </trkpt>
      <trkpt lat="43.44619" lon="6.59823">
        <ele>173</ele>
        <time>2020-03-29T18:33:43Z</time>
      </trkpt>
      <trkpt lat="43.44651" lon="6.59808">
        <ele>175</ele>
        <time>2020-03-29T18:34:10Z</time>
      </trkpt>
      <trkpt lat="43.44687" lon="6.59776">
        <ele>177</ele>
        <time>2020-03-29T18:34:45Z</time>
      </trkpt>
      <trkpt lat="43.447" lon="6.59781">
        <ele>178</ele>
        <time>2020-03-29T18:34:55Z</time>
      </trkpt>
      <trkpt lat="43.44703" lon="6.59783">
        <ele>179</ele>
        <time>2020-03-29T18:34:58Z</time>
      </trkpt>
      <trkpt lat="43.44711" lon="6.59791">
        <ele>179</ele>
        <time>2020-03-29T18:35:06Z</time>
      </trkpt>
      <trkpt lat="43.44715" lon="6.59808">
        <ele>180</ele>
        <time>2020-03-29T18:35:16Z</time>
      </trkpt>
      <trkpt lat="43.44724" lon="6.59819">
        <ele>181</ele>
        <time>2020-03-29T18:35:26Z</time>
      </trkpt>
      <trkpt lat="43.44707" lon="6.59828">
        <ele>180</ele>
        <time>2020-03-29T18:35:40Z</time>
      </trkpt>
      <trkpt lat="43.447" lon="6.59847">
        <ele>181</ele>
        <time>2020-03-29T18:35:53Z</time>
      </trkpt>
      <trkpt lat="43.44704" lon="6.59875">
        <ele>184</ele>
        <time>2020-03-29T18:36:09Z</time>
      </trkpt>
      <trkpt lat="43.44694" lon="6.59899">
        <ele>186</ele>
        <time>2020-03-29T18:36:26Z</time>
      </trkpt>
      <trkpt lat="43.44679" lon="6.59907">
        <ele>185</ele>
        <time>2020-03-29T18:36:38Z</time>
      </trkpt>
      <trkpt lat="43.44666" lon="6.59918">
        <ele>185</ele>
        <time>2020-03-29T18:36:51Z</time>
      </trkpt>
      <trkpt lat="43.44655" lon="6.59933">
        <ele>186</ele>
        <time>2020-03-29T18:37:03Z</time>
      </trkpt>
      <trkpt lat="43.44646" lon="6.59976">
        <ele>188</ele>
        <time>2020-03-29T18:37:29Z</time>
      </trkpt>
      <trkpt lat="43.44642" lon="6.59986">
        <ele>189</ele>
        <time>2020-03-29T18:37:36Z</time>
      </trkpt>
      <trkpt lat="43.44644" lon="6.60002">
        <ele>189</ele>
        <time>2020-03-29T18:37:45Z</time>
      </trkpt>
      <trkpt lat="43.4464" lon="6.60019">
        <ele>190</ele>
        <time>2020-03-29T18:37:56Z</time>
      </trkpt>
      <trkpt lat="43.44642" lon="6.60029">
        <ele>191</ele>
        <time>2020-03-29T18:38:02Z</time>
      </trkpt>
      <trkpt lat="43.44636" lon="6.60062">
        <ele>193</ele>
        <time>2020-03-29T18:38:21Z</time>
      </trkpt>
      <trkpt lat="43.44636" lon="6.60074">
        <ele>194</ele>
        <time>2020-03-29T18:38:28Z</time>
      </trkpt>
      <trkpt lat="43.4464" lon="6.60079">
        <ele>194</ele>
        <time>2020-03-29T18:38:33Z</time>
      </trkpt>
      <trkpt lat="43.44655" lon="6.60102">
        <ele>195</ele>
        <time>2020-03-29T18:38:51Z</time>
      </trkpt>
      <trkpt lat="43.4467" lon="6.60117">
        <ele>197</ele>
        <time>2020-03-29T18:39:05Z</time>
      </trkpt>
      <trkpt lat="43.44676" lon="6.60115">
        <ele>198</ele>
        <time>2020-03-29T18:39:10Z</time>
      </trkpt>
      <trkpt lat="43.44681" lon="6.60113">
        <ele>199</ele>
        <time>2020-03-29T18:39:15Z</time>
      </trkpt>
      <trkpt lat="43.44685" lon="6.60105">
        <ele>199</ele>
        <time>2020-03-29T18:39:20Z</time>
      </trkpt>
      <trkpt lat="43.44687" lon="6.60096">
        <ele>199</ele>
        <time>2020-03-29T18:39:26Z</time>
      </trkpt>
      <trkpt lat="43.44692" lon="6.60089">
        <ele>199</ele>
        <time>2020-03-29T18:39:31Z</time>
      </trkpt>
      <trkpt lat="43.44722" lon="6.60079">
        <ele>203</ele>
        <time>2020-03-29T18:39:56Z</time>
      </trkpt>
      <trkpt lat="43.44737" lon="6.60077">
        <ele>204</ele>
        <time>2020-03-29T18:40:08Z</time>
      </trkpt>
      <trkpt lat="43.44754" lon="6.60089">
        <ele>209</ele>
        <time>2020-03-29T18:40:23Z</time>
      </trkpt>
      <trkpt lat="43.44764" lon="6.60089">
        <ele>210</ele>
        <time>2020-03-29T18:40:31Z</time>
      </trkpt>
      <trkpt lat="43.4478" lon="6.60104">
        <ele>215</ele>
        <time>2020-03-29T18:40:47Z</time>
      </trkpt>
      <trkpt lat="43.44803" lon="6.60111">
        <ele>220</ele>
        <time>2020-03-29T18:41:06Z</time>
      </trkpt>
      <trkpt lat="43.44816" lon="6.60132">
        <ele>227</ele>
        <time>2020-03-29T18:41:22Z</time>
      </trkpt>
      <trkpt lat="43.44825" lon="6.60152">
        <ele>233</ele>
        <time>2020-03-29T18:41:36Z</time>
      </trkpt>
      <trkpt lat="43.44819" lon="6.60159">
        <ele>233</ele>
        <time>2020-03-29T18:41:42Z</time>
      </trkpt>
      <trkpt lat="43.44827" lon="6.60156">
        <ele>234</ele>
        <time>2020-03-29T18:41:48Z</time>
      </trkpt>
      <trkpt lat="43.44827" lon="6.60167">
        <ele>237</ele>
        <time>2020-03-29T18:41:55Z</time>
      </trkpt>
      <trkpt lat="43.4484" lon="6.60175">
        <ele>242</ele>
        <time>2020-03-29T18:42:06Z</time>
      </trkpt>
      <trkpt lat="43.44837" lon="6.60186">
        <ele>244</ele>
        <time>2020-03-29T18:42:13Z</time>
      </trkpt>
      <trkpt lat="43.44848" lon="6.60203">
        <ele>252</ele>
        <time>2020-03-29T18:42:26Z</time>
      </trkpt>
      <trkpt lat="43.44846" lon="6.6021">
        <ele>253</ele>
        <time>2020-03-29T18:42:31Z</time>
      </trkpt>
      <trkpt lat="43.44855" lon="6.60218">
        <ele>258</ele>
        <time>2020-03-29T18:42:39Z</time>
      </trkpt>
      <trkpt lat="43.44861" lon="6.60244">
        <ele>267</ele>
        <time>2020-03-29T18:42:55Z</time>
      </trkpt>
      <trkpt lat="43.4487" lon="6.60259">
        <ele>275</ele>
        <time>2020-03-29T18:43:06Z</time>
      </trkpt>
      <trkpt lat="43.4488" lon="6.60274">
        <ele>283</ele>
        <time>2020-03-29T18:43:18Z</time>
      </trkpt>
      <trkpt lat="43.44887" lon="6.60298">
        <ele>294</ele>
        <time>2020-03-29T18:43:33Z</time>
      </trkpt>
      <trkpt lat="43.44893" lon="6.60304">
        <ele>298</ele>
        <time>2020-03-29T18:43:39Z</time>
      </trkpt>
      <trkpt lat="43.44904" lon="6.60311">
        <ele>303</ele>
        <time>2020-03-29T18:43:49Z</time>
      </trkpt>
      <trkpt lat="43.44917" lon="6.60306">
        <ele>305</ele>
        <time>2020-03-29T18:44:00Z</time>
      </trkpt>
      <trkpt lat="43.4493" lon="6.60319">
        <ele>312</ele>
        <time>2020-03-29T18:44:13Z</time>
      </trkpt>
      <trkpt lat="43.44947" lon="6.60345">
        <ele>318</ele>
        <time>2020-03-29T18:44:33Z</time>
      </trkpt>
      <trkpt lat="43.44943" lon="6.60347">
        <ele>317</ele>
        <time>2020-03-29T18:44:36Z</time>
      </trkpt>
      <trkpt lat="43.44938" lon="6.60356">
        <ele>315</ele>
        <time>2020-03-29T18:44:43Z</time>
      </trkpt>
      <trkpt lat="43.44947" lon="6.60368">
        <ele>314</ele>
        <time>2020-03-29T18:44:53Z</time>
      </trkpt>
      <trkpt lat="43.44945" lon="6.60371">
        <ele>313</ele>
        <time>2020-03-29T18:44:55Z</time>
      </trkpt>
      <trkpt lat="43.44945" lon="6.60377">
        <ele>312</ele>
        <time>2020-03-29T18:44:59Z</time>
      </trkpt>
      <trkpt lat="43.44938" lon="6.60371">
        <ele>312</ele>
        <time>2020-03-29T18:45:05Z</time>
      </trkpt>
      <trkpt lat="43.44936" lon="6.60375">
        <ele>312</ele>
        <time>2020-03-29T18:45:08Z</time>
      </trkpt>
      <trkpt lat="43.44943" lon="6.60381">
        <ele>311</ele>
        <time>2020-03-29T18:45:15Z</time>
      </trkpt>
      <trkpt lat="43.44943" lon="6.60392">
        <ele>309</ele>
        <time>2020-03-29T18:45:21Z</time>
      </trkpt>
      <trkpt lat="43.44936" lon="6.60388">
        <ele>310</ele>
        <time>2020-03-29T18:45:27Z</time>
      </trkpt>
    </trkseg>
  </trk>
</gpx>